sensor_id;sensor_type;location;lat;lon;timestamp;P1;durP1;ratioP1;P2;durP2;ratioP2
26512;SDS011;14186;53.822;10.152;2023-04-01T00:02:09;12.75;;;6.40;;
26512;SDS011;14186;53.822;10.152;2023-04-01T00:07:09;10.23;;;6.50;;
26512;SDS011;14186;53.822;10.152;2023-04-01T00:12:11;11.85;;;5.45;;
26512;SDS011;14186;53.822;10.152;2023-04-01T00:17:11;11.23;;;5.82;;
26512;SDS011;14186;53.822;10.152;2023-04-01T00:22:11;11.52;;;6.18;;
26512;SDS011;14186;53.822;10.152;2023-04-01T00:27:13;11.23;;;5.63;;
26512;SDS011;14186;53.822;10.152;2023-04-01T00:32:13;13.27;;;6.53;;
26512;SDS011;14186;53.822;10.152;2023-04-01T00:37:14;15.52;;;6.95;;
26512;SDS011;14186;53.822;10.152;2023-04-01T00:42:15;13.50;;;6.57;;
26512;SDS011;14186;53.822;10.152;2023-04-01T00:47:15;12.80;;;6.43;;
26512;SDS011;14186;53.822;10.152;2023-04-01T00:52:17;13.63;;;6.32;;
26512;SDS011;14186;53.822;10.152;2023-04-01T00:57:19;10.15;;;5.97;;
26512;SDS011;14186;53.822;10.152;2023-04-01T01:02:21;16.50;;;7.45;;
26512;SDS011;14186;53.822;10.152;2023-04-01T01:07:24;14.13;;;6.90;;
26512;SDS011;14186;53.822;10.152;2023-04-01T01:12:29;13.70;;;6.65;;
26512;SDS011;14186;53.822;10.152;2023-04-01T01:17:33;14.50;;;7.07;;
26512;SDS011;14186;53.822;10.152;2023-04-01T01:22:42;16.83;;;7.47;;
26512;SDS011;14186;53.822;10.152;2023-04-01T01:27:47;14.43;;;7.40;;
26512;SDS011;14186;53.822;10.152;2023-04-01T01:32:59;15.25;;;8.27;;
26512;SDS011;14186;53.822;10.152;2023-04-01T01:38:05;18.77;;;8.55;;
26512;SDS011;14186;53.822;10.152;2023-04-01T01:43:06;15.25;;;8.52;;
26512;SDS011;14186;53.822;10.152;2023-04-01T01:48:08;14.40;;;8.15;;
26512;SDS011;14186;53.822;10.152;2023-04-01T01:53:10;14.85;;;8.95;;
26512;SDS011;14186;53.822;10.152;2023-04-01T01:58:12;21.75;;;9.70;;
26512;SDS011;14186;53.822;10.152;2023-04-01T02:03:13;18.85;;;9.20;;
26512;SDS011;14186;53.822;10.152;2023-04-01T02:08:17;16.65;;;9.35;;
26512;SDS011;14186;53.822;10.152;2023-04-01T02:13:21;17.87;;;9.97;;
26512;SDS011;14186;53.822;10.152;2023-04-01T02:18:24;15.90;;;9.23;;
26512;SDS011;14186;53.822;10.152;2023-04-01T02:23:26;17.02;;;9.98;;
26512;SDS011;14186;53.822;10.152;2023-04-01T02:28:26;18.80;;;9.93;;
26512;SDS011;14186;53.822;10.152;2023-04-01T02:33:27;18.45;;;11.32;;
26512;SDS011;14186;53.822;10.152;2023-04-01T02:38:29;16.30;;;9.15;;
26512;SDS011;14186;53.822;10.152;2023-04-01T02:43:29;13.48;;;7.32;;
26512;SDS011;14186;53.822;10.152;2023-04-01T02:48:30;9.82;;;5.88;;
26512;SDS011;14186;53.822;10.152;2023-04-01T02:53:31;7.32;;;3.95;;
26512;SDS011;14186;53.822;10.152;2023-04-01T02:58:32;5.75;;;3.45;;
26512;SDS011;14186;53.822;10.152;2023-04-01T03:03:32;6.25;;;3.00;;
26512;SDS011;14186;53.822;10.152;2023-04-01T03:08:33;6.70;;;3.92;;
26512;SDS011;14186;53.822;10.152;2023-04-01T03:13:34;6.45;;;3.90;;
26512;SDS011;14186;53.822;10.152;2023-04-01T03:18:34;7.68;;;3.78;;
26512;SDS011;14186;53.822;10.152;2023-04-01T03:23:35;9.75;;;4.32;;
26512;SDS011;14186;53.822;10.152;2023-04-01T03:28:36;8.45;;;4.32;;
26512;SDS011;14186;53.822;10.152;2023-04-01T03:33:36;8.88;;;5.03;;
26512;SDS011;14186;53.822;10.152;2023-04-01T03:38:38;8.20;;;4.75;;
26512;SDS011;14186;53.822;10.152;2023-04-01T03:43:38;9.48;;;4.88;;
26512;SDS011;14186;53.822;10.152;2023-04-01T03:48:38;7.97;;;4.53;;
26512;SDS011;14186;53.822;10.152;2023-04-01T03:53:40;8.52;;;4.60;;
26512;SDS011;14186;53.822;10.152;2023-04-01T03:58:40;8.68;;;5.18;;
26512;SDS011;14186;53.822;10.152;2023-04-01T04:03:40;8.32;;;5.20;;
26512;SDS011;14186;53.822;10.152;2023-04-01T04:08:42;10.10;;;5.05;;
26512;SDS011;14186;53.822;10.152;2023-04-01T04:13:42;7.28;;;4.45;;
26512;SDS011;14186;53.822;10.152;2023-04-01T04:18:43;6.80;;;4.05;;
26512;SDS011;14186;53.822;10.152;2023-04-01T04:23:44;4.25;;;2.78;;
26512;SDS011;14186;53.822;10.152;2023-04-01T04:28:44;5.60;;;2.70;;
26512;SDS011;14186;53.822;10.152;2023-04-01T04:33:45;3.97;;;2.05;;
26512;SDS011;14186;53.822;10.152;2023-04-01T04:38:46;3.85;;;2.33;;
26512;SDS011;14186;53.822;10.152;2023-04-01T04:43:50;4.47;;;2.33;;
26512;SDS011;14186;53.822;10.152;2023-04-01T04:48:51;7.20;;;2.97;;
26512;SDS011;14186;53.822;10.152;2023-04-01T04:53:53;4.50;;;2.58;;
26512;SDS011;14186;53.822;10.152;2023-04-01T04:58:53;3.53;;;2.10;;
26512;SDS011;14186;53.822;10.152;2023-04-01T05:03:53;3.92;;;2.28;;
26512;SDS011;14186;53.822;10.152;2023-04-01T05:08:55;4.72;;;2.70;;
26512;SDS011;14186;53.822;10.152;2023-04-01T05:13:55;4.20;;;2.30;;
26512;SDS011;14186;53.822;10.152;2023-04-01T05:18:56;4.65;;;2.25;;
26512;SDS011;14186;53.822;10.152;2023-04-01T05:23:57;3.40;;;1.80;;
26512;SDS011;14186;53.822;10.152;2023-04-01T05:28:57;6.03;;;2.95;;
26512;SDS011;14186;53.822;10.152;2023-04-01T05:33:58;6.07;;;2.00;;
26512;SDS011;14186;53.822;10.152;2023-04-01T05:38:59;3.38;;;1.95;;
26512;SDS011;14186;53.822;10.152;2023-04-01T05:43:59;4.47;;;1.88;;
26512;SDS011;14186;53.822;10.152;2023-04-01T05:49:00;3.83;;;2.00;;
26512;SDS011;14186;53.822;10.152;2023-04-01T05:54:01;3.28;;;2.00;;
26512;SDS011;14186;53.822;10.152;2023-04-01T05:59:01;4.13;;;2.13;;
26512;SDS011;14186;53.822;10.152;2023-04-01T06:04:02;4.13;;;1.70;;
26512;SDS011;14186;53.822;10.152;2023-04-01T06:09:07;4.47;;;2.13;;
26512;SDS011;14186;53.822;10.152;2023-04-01T06:14:11;2.55;;;1.42;;
26512;SDS011;14186;53.822;10.152;2023-04-01T06:19:22;2.97;;;1.70;;
26512;SDS011;14186;53.822;10.152;2023-04-01T06:24:31;3.22;;;1.55;;
26512;SDS011;14186;53.822;10.152;2023-04-01T06:29:44;2.55;;;1.42;;
26512;SDS011;14186;53.822;10.152;2023-04-01T06:34:50;2.85;;;1.42;;
26512;SDS011;14186;53.822;10.152;2023-04-01T06:40:05;4.93;;;1.92;;
26512;SDS011;14186;53.822;10.152;2023-04-01T06:45:09;5.43;;;2.45;;
26512;SDS011;14186;53.822;10.152;2023-04-01T06:50:15;4.28;;;2.45;;
26512;SDS011;14186;53.822;10.152;2023-04-01T06:55:27;2.83;;;1.60;;
26512;SDS011;14186;53.822;10.152;2023-04-01T07:00:31;3.50;;;1.65;;
26512;SDS011;14186;53.822;10.152;2023-04-01T07:05:32;4.35;;;1.67;;
26512;SDS011;14186;53.822;10.152;2023-04-01T07:10:35;2.67;;;1.60;;
26512;SDS011;14186;53.822;10.152;2023-04-01T07:15:38;3.60;;;1.50;;
26512;SDS011;14186;53.822;10.152;2023-04-01T07:20:40;2.22;;;1.48;;
26512;SDS011;14186;53.822;10.152;2023-04-01T07:25:43;3.38;;;1.33;;
26512;SDS011;14186;53.822;10.152;2023-04-01T07:30:46;3.38;;;1.40;;
26512;SDS011;14186;53.822;10.152;2023-04-01T07:35:51;3.53;;;1.40;;
26512;SDS011;14186;53.822;10.152;2023-04-01T07:40:56;1.38;;;0.70;;
26512;SDS011;14186;53.822;10.152;2023-04-01T07:46:00;5.15;;;1.02;;
26512;SDS011;14186;53.822;10.152;2023-04-01T07:51:03;3.25;;;0.90;;
26512;SDS011;14186;53.822;10.152;2023-04-01T07:56:07;4.13;;;1.75;;
26512;SDS011;14186;53.822;10.152;2023-04-01T08:01:10;2.70;;;1.30;;
26512;SDS011;14186;53.822;10.152;2023-04-01T08:06:14;2.97;;;1.45;;
26512;SDS011;14186;53.822;10.152;2023-04-01T08:11:22;2.80;;;1.42;;
26512;SDS011;14186;53.822;10.152;2023-04-01T08:16:26;1.63;;;0.80;;
26512;SDS011;14186;53.822;10.152;2023-04-01T08:21:32;2.03;;;0.77;;
26512;SDS011;14186;53.822;10.152;2023-04-01T08:26:36;2.47;;;0.95;;
26512;SDS011;14186;53.822;10.152;2023-04-01T08:31:39;1.40;;;0.80;;
26512;SDS011;14186;53.822;10.152;2023-04-01T08:36:41;1.00;;;0.50;;
26512;SDS011;14186;53.822;10.152;2023-04-01T08:47:07;2.53;;;0.93;;
26512;SDS011;14186;53.822;10.152;2023-04-01T08:57:25;2.08;;;0.75;;
26512;SDS011;14186;53.822;10.152;2023-04-01T09:02:38;1.38;;;0.32;;
26512;SDS011;14186;53.822;10.152;2023-04-01T09:07:41;0.70;;;0.40;;
26512;SDS011;14186;53.822;10.152;2023-04-01T09:12:51;1.23;;;0.45;;
26512;SDS011;14186;53.822;10.152;2023-04-01T09:28:41;1.83;;;0.40;;
26512;SDS011;14186;53.822;10.152;2023-04-01T09:33:46;1.73;;;0.80;;
26512;SDS011;14186;53.822;10.152;2023-04-01T09:38:54;1.27;;;0.60;;
26512;SDS011;14186;53.822;10.152;2023-04-01T09:44:00;1.93;;;0.70;;
26512;SDS011;14186;53.822;10.152;2023-04-01T09:54:23;2.70;;;0.90;;
26512;SDS011;14186;53.822;10.152;2023-04-01T09:59:32;2.45;;;1.02;;
26512;SDS011;14186;53.822;10.152;2023-04-01T10:04:49;6.10;;;2.78;;
26512;SDS011;14186;53.822;10.152;2023-04-01T10:10:20;3.10;;;1.42;;
26512;SDS011;14186;53.822;10.152;2023-04-01T10:20:55;5.18;;;1.60;;
26512;SDS011;14186;53.822;10.152;2023-04-01T10:31:18;2.83;;;1.30;;
26512;SDS011;14186;53.822;10.152;2023-04-01T10:36:35;4.38;;;1.98;;
26512;SDS011;14186;53.822;10.152;2023-04-01T10:47:05;6.28;;;3.13;;
26512;SDS011;14186;53.822;10.152;2023-04-01T10:57:44;6.88;;;3.08;;
26512;SDS011;14186;53.822;10.152;2023-04-01T11:19:00;9.55;;;4.55;;
26512;SDS011;14186;53.822;10.152;2023-04-01T11:24:16;6.78;;;3.85;;
26512;SDS011;14186;53.822;10.152;2023-04-01T11:29:30;8.07;;;4.25;;
26512;SDS011;14186;53.822;10.152;2023-04-01T11:34:47;7.53;;;4.15;;
26512;SDS011;14186;53.822;10.152;2023-04-01T11:39:55;11.03;;;4.63;;
26512;SDS011;14186;53.822;10.152;2023-04-01T11:44:58;10.40;;;4.28;;
26512;SDS011;14186;53.822;10.152;2023-04-01T11:50:08;9.07;;;4.63;;
26512;SDS011;14186;53.822;10.152;2023-04-01T11:55:28;10.95;;;4.75;;
26512;SDS011;14186;53.822;10.152;2023-04-01T12:05:50;10.07;;;4.82;;
26512;SDS011;14186;53.822;10.152;2023-04-01T12:10:55;11.07;;;5.55;;
26512;SDS011;14186;53.822;10.152;2023-04-01T12:16:07;10.02;;;4.88;;
26512;SDS011;14186;53.822;10.152;2023-04-01T12:21:14;19.02;;;5.25;;
26512;SDS011;14186;53.822;10.152;2023-04-01T12:31:41;10.85;;;4.43;;
26512;SDS011;14186;53.822;10.152;2023-04-01T12:36:47;13.63;;;5.15;;
26512;SDS011;14186;53.822;10.152;2023-04-01T12:41:52;8.18;;;3.95;;
26512;SDS011;14186;53.822;10.152;2023-04-01T12:46:59;11.32;;;3.95;;
26512;SDS011;14186;53.822;10.152;2023-04-01T12:52:05;9.40;;;4.30;;
26512;SDS011;14186;53.822;10.152;2023-04-01T12:57:13;11.73;;;4.57;;
26512;SDS011;14186;53.822;10.152;2023-04-01T13:02:21;11.55;;;4.07;;
26512;SDS011;14186;53.822;10.152;2023-04-01T13:07:37;10.60;;;4.68;;
26512;SDS011;14186;53.822;10.152;2023-04-01T13:12:46;14.10;;;5.13;;
26512;SDS011;14186;53.822;10.152;2023-04-01T13:17:50;11.95;;;5.28;;
26512;SDS011;14186;53.822;10.152;2023-04-01T13:22:58;10.37;;;4.50;;
26512;SDS011;14186;53.822;10.152;2023-04-01T13:28:00;11.63;;;4.90;;
26512;SDS011;14186;53.822;10.152;2023-04-01T13:33:04;14.10;;;5.05;;
26512;SDS011;14186;53.822;10.152;2023-04-01T13:38:17;14.65;;;5.65;;
26512;SDS011;14186;53.822;10.152;2023-04-01T13:43:21;12.85;;;5.68;;
26512;SDS011;14186;53.822;10.152;2023-04-01T13:48:26;14.70;;;5.38;;
26512;SDS011;14186;53.822;10.152;2023-04-01T13:53:36;14.07;;;5.47;;
26512;SDS011;14186;53.822;10.152;2023-04-01T13:58:43;10.68;;;5.40;;
26512;SDS011;14186;53.822;10.152;2023-04-01T14:03:55;8.27;;;4.55;;
26512;SDS011;14186;53.822;10.152;2023-04-01T14:09:14;11.93;;;4.75;;
26512;SDS011;14186;53.822;10.152;2023-04-01T14:14:18;17.52;;;4.97;;
26512;SDS011;14186;53.822;10.152;2023-04-01T14:19:27;15.60;;;4.38;;
26512;SDS011;14186;53.822;10.152;2023-04-01T14:24:40;9.90;;;3.83;;
26512;SDS011;14186;53.822;10.152;2023-04-01T14:29:45;7.78;;;4.05;;
26512;SDS011;14186;53.822;10.152;2023-04-01T14:34:55;9.23;;;3.88;;
26512;SDS011;14186;53.822;10.152;2023-04-01T14:40:21;7.65;;;3.58;;
26512;SDS011;14186;53.822;10.152;2023-04-01T14:45:29;7.45;;;3.55;;
26512;SDS011;14186;53.822;10.152;2023-04-01T14:50:40;8.07;;;3.40;;
26512;SDS011;14186;53.822;10.152;2023-04-01T14:55:47;9.43;;;4.50;;
26512;SDS011;14186;53.822;10.152;2023-04-01T15:00:55;12.40;;;4.18;;
26512;SDS011;14186;53.822;10.152;2023-04-01T15:06:06;16.70;;;4.43;;
26512;SDS011;14186;53.822;10.152;2023-04-01T15:16:30;10.38;;;4.20;;
26512;SDS011;14186;53.822;10.152;2023-04-01T15:21:34;12.57;;;4.85;;
26512;SDS011;14186;53.822;10.152;2023-04-01T15:32:05;11.10;;;4.70;;
26512;SDS011;14186;53.822;10.152;2023-04-01T15:37:09;11.35;;;5.35;;
26512;SDS011;14186;53.822;10.152;2023-04-01T15:42:27;11.52;;;4.28;;
26512;SDS011;14186;53.822;10.152;2023-04-01T15:47:37;11.70;;;3.97;;
26512;SDS011;14186;53.822;10.152;2023-04-01T15:52:38;10.45;;;4.00;;
26512;SDS011;14186;53.822;10.152;2023-04-01T15:57:46;7.57;;;3.40;;
26512;SDS011;14186;53.822;10.152;2023-04-01T16:02:49;9.43;;;3.33;;
26512;SDS011;14186;53.822;10.152;2023-04-01T16:07:55;13.50;;;4.20;;
26512;SDS011;14186;53.822;10.152;2023-04-01T16:13:02;12.15;;;4.10;;
26512;SDS011;14186;53.822;10.152;2023-04-01T16:18:12;11.65;;;4.40;;
26512;SDS011;14186;53.822;10.152;2023-04-01T16:23:17;7.00;;;3.20;;
26512;SDS011;14186;53.822;10.152;2023-04-01T16:28:19;6.78;;;3.00;;
26512;SDS011;14186;53.822;10.152;2023-04-01T16:33:23;10.20;;;3.70;;
26512;SDS011;14186;53.822;10.152;2023-04-01T16:38:25;7.07;;;3.15;;
26512;SDS011;14186;53.822;10.152;2023-04-01T16:43:28;6.93;;;3.20;;
26512;SDS011;14186;53.822;10.152;2023-04-01T16:48:34;6.20;;;2.10;;
26512;SDS011;14186;53.822;10.152;2023-04-01T16:53:37;4.10;;;1.92;;
26512;SDS011;14186;53.822;10.152;2023-04-01T17:00:49;5.43;;;2.78;;
26512;SDS011;14186;53.822;10.152;2023-04-01T17:05:55;5.63;;;2.65;;
26512;SDS011;14186;53.822;10.152;2023-04-01T17:16:30;6.05;;;2.10;;
26512;SDS011;14186;53.822;10.152;2023-04-01T17:21:44;10.65;;;2.80;;
26512;SDS011;14186;53.822;10.152;2023-04-01T17:26:46;11.07;;;2.53;;
26512;SDS011;14186;53.822;10.152;2023-04-01T17:31:51;7.82;;;2.60;;
26512;SDS011;14186;53.822;10.152;2023-04-01T17:37:00;5.65;;;2.05;;
26512;SDS011;14186;53.822;10.152;2023-04-01T17:42:04;9.63;;;3.15;;
26512;SDS011;14186;53.822;10.152;2023-04-01T17:52:26;7.55;;;3.13;;
26512;SDS011;14186;53.822;10.152;2023-04-01T17:57:30;8.60;;;2.47;;
26512;SDS011;14186;53.822;10.152;2023-04-01T18:07:38;9.60;;;3.42;;
26512;SDS011;14186;53.822;10.152;2023-04-01T18:12:56;7.07;;;2.40;;
26512;SDS011;14186;53.822;10.152;2023-04-01T18:18:05;7.18;;;2.30;;
26512;SDS011;14186;53.822;10.152;2023-04-01T18:23:14;7.32;;;3.25;;
26512;SDS011;14186;53.822;10.152;2023-04-01T18:28:21;7.18;;;2.75;;
26512;SDS011;14186;53.822;10.152;2023-04-01T18:33:23;6.00;;;2.75;;
26512;SDS011;14186;53.822;10.152;2023-04-01T18:38:27;4.97;;;2.22;;
26512;SDS011;14186;53.822;10.152;2023-04-01T18:43:30;5.85;;;2.10;;
26512;SDS011;14186;53.822;10.152;2023-04-01T18:48:37;8.32;;;2.22;;
26512;SDS011;14186;53.822;10.152;2023-04-01T18:53:41;4.10;;;1.80;;
26512;SDS011;14186;53.822;10.152;2023-04-01T18:58:45;6.20;;;2.38;;
26512;SDS011;14186;53.822;10.152;2023-04-01T19:03:48;5.55;;;1.80;;
26512;SDS011;14186;53.822;10.152;2023-04-01T19:08:53;3.17;;;1.70;;
26512;SDS011;14186;53.822;10.152;2023-04-01T19:13:55;8.32;;;1.60;;
26512;SDS011;14186;53.822;10.152;2023-04-01T19:19:04;5.65;;;1.85;;
26512;SDS011;14186;53.822;10.152;2023-04-01T19:24:16;10.52;;;2.58;;
26512;SDS011;14186;53.822;10.152;2023-04-01T19:29:26;5.07;;;1.63;;
26512;SDS011;14186;53.822;10.152;2023-04-01T19:34:34;5.65;;;1.80;;
26512;SDS011;14186;53.822;10.152;2023-04-01T19:39:42;7.40;;;2.35;;
26512;SDS011;14186;53.822;10.152;2023-04-01T19:44:51;6.57;;;1.67;;
26512;SDS011;14186;53.822;10.152;2023-04-01T19:49:57;6.32;;;2.10;;
26512;SDS011;14186;53.822;10.152;2023-04-01T19:55:02;9.77;;;1.90;;
26512;SDS011;14186;53.822;10.152;2023-04-01T20:00:06;5.10;;;1.95;;
26512;SDS011;14186;53.822;10.152;2023-04-01T20:05:16;3.40;;;1.48;;
26512;SDS011;14186;53.822;10.152;2023-04-01T20:10:22;13.50;;;2.28;;
26512;SDS011;14186;53.822;10.152;2023-04-01T20:15:27;4.95;;;1.90;;
26512;SDS011;14186;53.822;10.152;2023-04-01T20:20:29;6.32;;;2.63;;
26512;SDS011;14186;53.822;10.152;2023-04-01T20:25:32;4.95;;;1.85;;
26512;SDS011;14186;53.822;10.152;2023-04-01T20:35:50;6.93;;;2.67;;
26512;SDS011;14186;53.822;10.152;2023-04-01T20:40:57;4.45;;;1.88;;
26512;SDS011;14186;53.822;10.152;2023-04-01T20:46:04;9.00;;;1.65;;
26512;SDS011;14186;53.822;10.152;2023-04-01T20:51:09;5.57;;;1.67;;
26512;SDS011;14186;53.822;10.152;2023-04-01T20:56:14;10.00;;;1.70;;
26512;SDS011;14186;53.822;10.152;2023-04-01T21:01:19;10.75;;;1.73;;
26512;SDS011;14186;53.822;10.152;2023-04-01T21:06:28;3.65;;;1.70;;
26512;SDS011;14186;53.822;10.152;2023-04-01T21:11:34;6.00;;;1.20;;
26512;SDS011;14186;53.822;10.152;2023-04-01T21:16:40;9.05;;;1.85;;
26512;SDS011;14186;53.822;10.152;2023-04-01T21:21:50;4.43;;;1.35;;
26512;SDS011;14186;53.822;10.152;2023-04-01T21:27:01;5.32;;;1.02;;
26512;SDS011;14186;53.822;10.152;2023-04-01T21:32:09;4.10;;;1.02;;
26512;SDS011;14186;53.822;10.152;2023-04-01T21:42:38;5.03;;;1.20;;
26512;SDS011;14186;53.822;10.152;2023-04-01T21:58:32;5.47;;;1.10;;
26512;SDS011;14186;53.822;10.152;2023-04-01T22:03:49;3.60;;;1.00;;
26512;SDS011;14186;53.822;10.152;2023-04-01T22:09:03;9.82;;;1.40;;
26512;SDS011;14186;53.822;10.152;2023-04-01T22:14:08;10.05;;;1.13;;
26512;SDS011;14186;53.822;10.152;2023-04-01T22:19:12;2.42;;;0.70;;
26512;SDS011;14186;53.822;10.152;2023-04-01T22:24:14;7.55;;;1.55;;
26512;SDS011;14186;53.822;10.152;2023-04-01T22:29:20;4.05;;;1.00;;
26512;SDS011;14186;53.822;10.152;2023-04-01T22:34:23;3.63;;;0.77;;
26512;SDS011;14186;53.822;10.152;2023-04-01T22:39:31;7.75;;;1.15;;
26512;SDS011;14186;53.822;10.152;2023-04-01T22:44:39;3.75;;;1.05;;
26512;SDS011;14186;53.822;10.152;2023-04-01T22:49:44;3.15;;;0.93;;
26512;SDS011;14186;53.822;10.152;2023-04-01T22:54:46;3.10;;;0.68;;
26512;SDS011;14186;53.822;10.152;2023-04-01T22:59:48;3.33;;;0.88;;
26512;SDS011;14186;53.822;10.152;2023-04-01T23:04:52;2.00;;;0.70;;
26512;SDS011;14186;53.822;10.152;2023-04-01T23:09:53;2.75;;;1.23;;
26512;SDS011;14186;53.822;10.152;2023-04-01T23:14:58;5.30;;;0.80;;
26512;SDS011;14186;53.822;10.152;2023-04-01T23:20:00;4.47;;;0.70;;
26512;SDS011;14186;53.822;10.152;2023-04-01T23:25:05;4.38;;;0.80;;
26512;SDS011;14186;53.822;10.152;2023-04-01T23:30:23;5.88;;;0.88;;
26512;SDS011;14186;53.822;10.152;2023-04-01T23:35:46;3.97;;;1.05;;
26512;SDS011;14186;53.822;10.152;2023-04-01T23:40:46;6.95;;;0.88;;
26512;SDS011;14186;53.822;10.152;2023-04-01T23:45:49;5.00;;;0.85;;
26512;SDS011;14186;53.822;10.152;2023-04-01T23:50:49;4.18;;;0.90;;
26512;SDS011;14186;53.822;10.152;2023-04-01T23:55:49;3.65;;;1.00;;
